Tiempo atmosférico en la estación meteorológica de Villarino De Los Aires, Salamanca (700 m.)



Fecha
DESCASC
Temp. máxima en grados centígrados (hora)
DESCASC
Temp. mínima en grados centígrados (hora)
DESCASC
Temp. media en grados centígrados
DESCASC
Racha de viento máxima en m/sg (hora)
DESCASC
Velocidad máxima media en intervalos de 10 minutos(hora)
DESCASC
Precipitaciones diarias en mm
DESCASC
Precipitaciones de 00:00 a 06:00 en mm
DESCASC
Precipitaciones de 06:00 a 12:00 en mm
DESCASC
Precipitaciones de 12:00 a 18:00 en mm
DESCASC
Precipitaciones de 18:00 a 24:00 en mm
DESCASC
11-12-2019 9.1 (14:50) 1.4 (03:30) 5.3 15 (15:30) 9.44 (15:30) 0.8 0.2 0.6 0 0
08-12-2019 11 (18:50) 4.2 (00:00) 7.6 8.06 (19:40) 5.28 (19:40) 2.4 0 0.2 2.2 0
07-12-2019 14.1 (15:40) 1.4 (00:00) 7.8 5 (23:40) 3.89 (23:40) 0 0 0 0 0
06-12-2019 14.2 (16:20) 1.5 (00:00) 7.8 5.28 (02:00) 3.89 (07:20) 0 0 0 0 0
05-12-2019 10.8 (14:50) 0.8 (00:00) 5.8 10 (13:30) 6.11 (13:30) 0 0 0 0 0
04-12-2019 8.7 (15:30) -2 (05:50) 3.3 6.11 (16:10) 3.33 (16:10) 0 0 0 0 0
03-12-2019 7.7 (16:40) -0.4 (00:00) 3.6 13.61 (00:40) 8.06 (01:10) 0 0 0 0 0
02-12-2019 10.8 (15:10) 2.5 (00:00) 6.7 24.17 (13:30) 11.11 (13:30) 0.2 0 0.2 0 0
01-12-2019 13.2 (13:20) 5.3 (00:00) 9.3 9.72 (01:30) 5.83 (04:40) 3.2 2.4 0.4 0.4 0
30-11-2019 12.9 (12:20) 5.7 (00:00) 9.3 16.11 (15:10) 9.72 (15:10) 5 0.6 2.4 2 0
29-11-2019 14.3 (15:40) 11.5 (00:00) 12.9 10 (00:40) 6.39 (00:40) 8.2 0 0.4 0 7.8
28-11-2019 13.2 (16:10) 9.1 (04:20) 11.2 15.28 (17:20) 8.89 (15:40) 5.6 0 0.4 0 5.2
27-11-2019 12.6 (13:50) 8 (00:00) 10.3 15.28 (13:30) 8.61 (14:00) 1.2 0.2 0 0 1
26-11-2019 14.7 (16:20) 9.6 (00:00) 12.2 17.5 (19:50) 11.11 (20:00) 9.6 0 3.4 4 2.2
25-11-2019 13.6 (15:20) 10.4 (00:00) 12 13.61 (00:20) 9.44 (00:50) 0.4 0.4 0 0 0
24-11-2019 10.6 (15:20) 3.3 (00:00) 7 14.44 (22:20) 8.61 (22:30) 1.2 0 0 0 1.2
23-11-2019 11.4 (15:10) 4.9 (00:00) 8.1 17.5 (00:30) 11.39 (01:50) 0.4 0 0.2 0 0.2
22-11-2019 12.5 (14:00) 6.3 (00:00) 9.4 18.33 (22:40) 12.5 (22:40) 17 2.4 6.4 4 4.2
21-11-2019 12.1 (15:40) 4.8 (00:00) 8.5 8.89 (05:30) 5.28 (04:20) 4.6 2 1 1.6 0
20-11-2019 7.9 (16:00) 4.8 (01:00) 6.4 8.89 (14:20) 5.56 (13:50) 9.2 5.4 3.2 0.2 0.4
19-11-2019 9.8 (16:00) -0.1 (00:00) 4.9 5.83 (23:10) 2.78 (23:10) 0 0 0 0 0
18-11-2019 14.1 (14:50) 2.4 (00:00) 8.3 12.5 (01:30) 6.11 (01:00) 0 0 0 0 0
17-11-2019 11.5 (14:10) 4.3 (00:00) 7.9 11.94 (15:30) 8.06 (15:40) 1.4 0 0 1.4 0
16-11-2019 9.1 (16:40) 0.8 (00:00) 5 9.72 (14:20) 7.22 (14:20) 0 0 0 0 0
15-11-2019 8.4 (13:20) 2.2 (00:00) 5.3 16.11 (01:30) 9.44 (00:30) 0 0 0 0 0

Gráficas

Temp. máximas Temp. mínimas Temp. medias Precipitaciones Rachas de viento máximas Velocidades máximas media en intervalos de 10 minutos

Datos horarios

Fecha y hora oficial Temperatura (ºC) Velocidad del viento (km/h) Dirección del viento Racha (km/h) Dirección de racha Precipitación (mm) Presión (hPa) Tendencia (hPa) Humedad (%)
2019-12-14 23:00:00 9.2 15 Sudoeste 39 Sudoeste 0 -- -- 90
2019-12-14 22:00:00 9.3 24 Sudoeste 41 Sudoeste 0 -- -- 91
2019-12-14 21:00:00 9.3 23 Sudoeste 41 Sudoeste 0 -- -- 92
2019-12-14 20:00:00 8.9 20 Sudoeste 37 Sudoeste 0 -- -- 92
2019-12-14 19:00:00 9 19 Sudoeste 36 Sudoeste 0.2 -- -- 89
2019-12-14 18:00:00 9.4 17 Sudoeste 32 Sudoeste 0 -- -- 90
2019-12-14 17:00:00 9.8 19 Sudoeste 36 Sudoeste 0 -- -- 91
2019-12-14 16:00:00 9.6 21 Sudoeste 36 Sudoeste 0.2 -- -- 94
2019-12-14 15:00:00 10.7 14 Sudoeste 30 Oeste 0 -- -- 87
2019-12-14 14:00:00 10.8 19 Oeste 36 Sudoeste 0 -- -- 83
2019-12-14 13:00:00 10.2 21 Sudoeste 35 Sudoeste 0 -- -- 87
2019-12-14 12:00:00 9.4 20 Sudoeste 32 Sudoeste 0 -- -- 91
2019-12-14 11:00:00 9.1 15 Sudoeste 28 Sudoeste 0 -- -- 93
2019-12-14 10:00:00 8.5 17 Sudoeste 30 Sur 0 -- -- 95
2019-12-14 09:00:00 8.1 16 Sudoeste 24 Sudoeste 0 -- -- 95
2019-12-14 08:00:00 7.9 14 Sudoeste 30 Sudoeste 0 -- -- 96
2019-12-14 07:00:00 8.3 19 Sudoeste 32 Oeste 0 -- -- 91
2019-12-14 06:00:00 8.6 18 Sudoeste 33 Sudoeste 0 -- -- 90
2019-12-14 05:00:00 8.7 17 Sudoeste 28 Sudoeste 0 -- -- 89
2019-12-14 04:00:00 8.7 19 Sudoeste 34 Oeste 0 -- -- 88
2019-12-14 03:00:00 9.1 20 Oeste 32 Sudoeste 0 -- -- 86
2019-12-14 02:00:00 9.4 23 Oeste 36 Oeste 0 -- -- 83
2019-12-14 01:00:00 9.1 19 Sudoeste 31 Sudoeste 0 -- -- 84
2019-12-14 00:00:00 9.2 19 Sudoeste 31 Oeste 0 -- -- 87
2019-12-13 23:00:00 9.7 22 Oeste 42 Oeste 0 -- -- 85
2019-12-13 22:00:00 10.3 23 Oeste 35 Oeste 0 -- -- 85
2019-12-13 21:00:00 10.5 18 Oeste 40 Oeste 0 -- -- 88
2019-12-13 20:00:00 10.8 25 Oeste 40 Oeste 0 -- -- 87
2019-12-13 19:00:00 11 28 Oeste 43 Oeste 0 -- -- 87
2019-12-13 18:00:00 11.3 26 Oeste 41 Oeste 0 -- -- 86
2019-12-13 17:00:00 12 27 Oeste 39 Oeste 0 -- -- 83
2019-12-13 16:00:00 12.6 22 Oeste 43 Oeste 0 -- -- 81
2019-12-13 15:00:00 12.2 29 Oeste 49 Oeste 0 -- -- 82
2019-12-13 14:00:00 12.5 31 Oeste 55 Oeste 0 -- -- 83
2019-12-13 13:00:00 11.8 28 Oeste 39 Oeste 0 -- -- 85
2019-12-13 12:00:00 11.7 24 Sudoeste 45 Sudoeste 0 -- -- 84
2019-12-13 11:00:00 11.3 25 Sudoeste 42 Sudoeste 0 -- -- 85
2019-12-13 10:00:00 11.2 24 Oeste 44 Oeste 0 -- -- 82
2019-12-13 09:00:00 11.1 29 Oeste 48 Oeste 0 -- -- 80
2019-12-13 08:00:00 10.9 35 Oeste 53 Oeste 0 -- -- 80
2019-12-13 07:00:00 10.9 31 Oeste 60 Oeste 0 -- -- 79
2019-12-13 06:00:00 10.9 37 Oeste 63 Oeste 0 -- -- 81
2019-12-13 05:00:00 11.2 37 Oeste 60 Oeste 0 -- -- 81
2019-12-13 04:00:00 11.7 41 Oeste 61 Oeste 0 -- -- 83
2019-12-13 03:00:00 11.7 42 Oeste 65 Oeste 0 -- -- 85
2019-12-13 02:00:00 11.7 35 Oeste 63 Oeste 0 -- -- 86
2019-12-13 01:00:00 11.9 37 Oeste 61 Oeste 0 -- -- 85
2019-12-13 00:00:00 11.9 43 Oeste 62 Oeste 0 -- -- 85
2019-12-12 23:00:00 11.8 39 Oeste 62 Oeste 0 -- -- 86
2019-12-12 22:00:00 11.7 35 Oeste 54 Oeste 0 -- -- 86
2019-12-12 21:00:00 11.5 27 Oeste 49 Oeste 0 -- -- 88
2019-12-12 20:00:00 11.2 38 Oeste 56 Oeste 0 -- -- 89
2019-12-12 19:00:00 10.7 39 Oeste 57 Oeste 0 -- -- 90
2019-12-12 18:00:00 10.2 40 Oeste 56 Oeste 0.2 -- -- 92
2019-12-12 17:00:00 9.4 34 Sudoeste 57 Sudoeste 0.2 -- -- 92
2019-12-12 16:00:00 8.9 28 Sudoeste 50 Oeste 0.2 -- -- 92
2019-12-12 15:00:00 8.5 34 Oeste 59 Oeste 0 -- -- 90
2019-12-12 14:00:00 8 28 Sudoeste 45 Sudoeste 0 -- -- 90
2019-12-12 13:00:00 7.7 24 Sudoeste 47 Sudoeste 0 -- -- 91
2019-12-12 12:00:00 7.4 26 Sudoeste 45 Sudoeste 0 -- -- 91
2019-12-12 11:00:00 6.8 24 Sudoeste 40 Sudoeste 0.2 -- -- 95
2019-12-12 10:00:00 6.3 24 Sudoeste 36 Sudoeste 0 -- -- 94
2019-12-12 09:00:00 5.9 22 Sudoeste 36 Sudoeste 0.2 -- -- 96
2019-12-12 08:00:00 5.6 17 Sudoeste 36 Sudoeste 0.2 -- -- 97
2019-12-12 07:00:00 5.6 19 Sudoeste 38 Sudoeste 0.4 -- -- 97
2019-12-12 06:00:00 5.6 18 Sudoeste 35 Sudoeste 0 -- -- 98
2019-12-12 05:00:00 5.1 20 Sudoeste 30 Sudoeste 0.4 -- -- 97
2019-12-12 04:00:00 5 17 Sudoeste 30 Sudoeste 0.2 -- -- 97
2019-12-12 03:00:00 4.9 15 Sudoeste 28 Sudoeste 0.4 -- -- 96
2019-12-12 02:00:00 5.1 18 Sudoeste 30 Sudoeste 0 -- -- 93
2019-12-12 01:00:00 5 14 Sudoeste 23 Sudoeste 0 -- -- 93
2019-12-12 00:00:00 5.2 13 Sudoeste 26 Sudoeste 0 -- -- 91
2019-12-11 23:00:00 5.3 14 Sudoeste 24 Sudoeste 0 -- -- 89
2019-12-11 22:00:00 5.6 21 Oeste 33 Sudoeste 0 -- -- 85
2019-12-11 21:00:00 5.8 21 Oeste 31 Oeste 0 -- -- 83
2019-12-11 20:00:00 6.2 21 Oeste 31 Oeste 0 -- -- 79
2019-12-11 19:00:00 6.5 15 Sudoeste 23 Oeste 0 -- -- 72
2019-12-11 18:00:00 6.9 13 Oeste 27 Noroeste 0 -- -- 69
2019-12-11 17:00:00 7.3 15 Noroeste 43 Oeste 0 -- -- 67
2019-12-11 16:00:00 8.5 27 Noroeste 54 Oeste 0 -- -- 62
2019-12-11 15:00:00 8.9 28 Oeste 42 Oeste 0 -- -- 62
2019-12-11 14:00:00 8.8 23 Noroeste 34 Oeste 0 -- -- 66
2019-12-11 13:00:00 8.7 14 Noroeste 37 Oeste 0 -- -- 69
2019-12-11 12:00:00 7.5 28 Noroeste 41 Oeste 0 -- -- 76
2019-12-11 11:00:00 7.3 20 Oeste 36 Oeste 0 -- -- 84
2019-12-11 10:00:00 5.5 24 Oeste 35 Oeste 0 -- -- 95
2019-12-11 09:00:00 4.5 16 Oeste 28 Oeste 0 -- -- 98
2019-12-11 08:00:00 4.4 17 Sudoeste 24 Oeste 0.2 -- -- 98
2019-12-11 07:00:00 3.2 7 Oeste 13 Sudoeste 0.4 -- -- 95
2019-12-11 06:00:00 4 3 Noroeste 20 Sudoeste 0.2 -- -- 91
2019-12-11 05:00:00 4.6 9 Sudoeste 18 Sudoeste 0 -- -- 86
2019-12-11 04:00:00 2.1 0 Calma 9 Sudoeste 0 -- -- 94
2019-12-11 03:00:00 2.6 2 Sur 13 Sur 0 -- -- 96
2019-12-11 02:00:00 3.1 2 Noroeste 17 Sur 0 -- -- 94
2019-12-11 01:00:00 3 0 Calma 14 Sudoeste 0 -- -- 98
2019-12-11 00:00:00 3.6 2 Noroeste 19 Sur 0 -- -- 98
2019-12-10 23:00:00 3.3 3 Oeste 25 Sur 0 -- -- 99
2019-12-10 22:00:00 4.1 0 Calma 7 Sudoeste 0 -- -- 100
2019-12-10 21:00:00 4 2 Sudoeste 4 Sudoeste 0 -- -- 100
2019-12-10 20:00:00 4.7 0 Calma 6 Sudoeste 0 -- -- 100
2019-12-10 19:00:00 5.8 5 Sudoeste 11 Oeste 0 -- -- 100
2019-12-10 18:00:00 5 6 Oeste 10 Oeste 0 -- -- 100
2019-12-10 17:00:00 6.8 0 Calma 5 Sudeste 0 -- -- 99
2019-12-10 16:00:00 5.9 0 Calma 5 Oeste 0 -- -- 99
2019-12-10 15:00:00 6.3 2 Este 5 Sudeste 0 -- -- 98
2019-12-10 14:00:00 5.9 2 Nordeste 8 Este 0 -- -- 98
2019-12-10 13:00:00 4.4 3 Norte 6 Noroeste 0 -- -- 98
2019-12-10 12:00:00 3.2 4 Nordeste 10 Sudeste 0 -- -- 99
2019-12-10 11:00:00 1 0 Calma 9 Este 0 -- -- 99
2019-12-10 10:00:00 0.4 5 Este 10 Sudeste 0 -- -- 100
2019-12-10 09:00:00 -0.7 0 Calma 10 Sudeste 0 -- -- 100
2019-12-10 08:00:00 -0.2 3 Oeste 10 Sudeste 0 -- -- 100
2019-12-10 07:00:00 -0.4 2 Este 9 Este 0 -- -- 100
2019-12-10 06:00:00 -1.3 0 Calma 12 Sudeste 0 -- -- 99
2019-12-10 05:00:00 0.7 11 Sudeste 13 Sudeste 0 -- -- 100
2019-12-10 04:00:00 1.1 6 Sudeste 10 Sudeste 0 -- -- 98
2019-12-10 03:00:00 2 2 Este 5 Este 0 -- -- 98
2019-12-10 02:00:00 2.5 0 Calma 4 Este 0 -- -- 98
2019-12-10 01:00:00 2.8 2 Noroeste 4 Noroeste 0 -- -- 95
2019-12-10 00:00:00 3.4 3 Sudeste 6 Sudeste 0 -- -- 94
2019-12-09 23:00:00 4.1 2 Oeste 5 Sudoeste 0 -- -- 93
2019-12-09 22:00:00 4.5 0 Calma 5 Sudeste 0 -- -- 91
2019-12-09 21:00:00 4.4 4 Sudoeste 7 Sudoeste 0 -- -- 91
2019-12-09 20:00:00 5.4 0 Calma 7 Este 0 -- -- 87
2019-12-09 19:00:00 6 3 Este 5 Noroeste 0 -- -- 83
2019-12-09 18:00:00 7.7 6 Oeste 10 Sudoeste 0 -- -- 74
2019-12-09 17:00:00 8.6 5 Sudoeste 13 Sudoeste 0 -- -- 73
2019-12-09 16:00:00 9.9 7 Sudoeste 17 Oeste 0 -- -- 65
2019-12-09 15:00:00 10.2 11 Oeste 16 Oeste 0.2 -- -- 69
2019-12-09 14:00:00 9.8 10 Oeste 25 Sudoeste 0 -- -- 78
2019-12-09 13:00:00 9.2 10 Oeste 14 Oeste 0 -- -- 82
2019-12-09 12:00:00 8.2 6 Noroeste 11 Sudoeste 0 -- -- 86
2019-12-09 11:00:00 6.3 6 Sudoeste 19 Sur 0 -- -- 94
2019-12-09 10:00:00 4.2 5 Sur 11 Sudoeste 0 -- -- 98
2019-12-09 09:00:00 4.5 0 Calma 8 Noroeste 0 -- -- 99
2019-12-09 08:00:00 4.4 4 Oeste 12 Oeste 0 -- -- 99
2019-12-09 07:00:00 4.2 6 Sudoeste 12 Oeste 0 -- -- 99
2019-12-09 06:00:00 5.2 8 Oeste 14 Oeste 0 -- -- 99
2019-12-09 05:00:00 5 6 Sudoeste 14 Oeste 0 -- -- 100
2019-12-09 04:00:00 5.5 6 Sudoeste 12 Sudoeste 0 -- -- 99
2019-12-09 03:00:00 6.2 8 Sudoeste 20 Sudoeste 0 -- -- 100
2019-12-09 02:00:00 6.7 8 Oeste 18 Oeste 0 -- -- 99
2019-12-09 01:00:00 7.7 11 Oeste 17 Oeste 0 -- -- 99
2019-12-09 00:00:00 8.2 10 Oeste 19 Oeste 0 -- -- 99
2019-12-08 23:00:00 8.3 9 Oeste 20 Oeste 0 -- -- 98
2019-12-08 22:00:00 8.7 11 Oeste 16 Oeste 0 -- -- 98
2019-12-08 21:00:00 9.9 12 Oeste 25 Oeste 0 -- -- 97
2019-12-08 20:00:00 10.6 19 Oeste 29 Oeste 0 -- -- 97
2019-12-08 19:00:00 11 14 Oeste 25 Oeste 0 -- -- 98
2019-12-08 18:00:00 10.7 15 Oeste 22 Oeste 0 -- -- 98
2019-12-08 17:00:00 10.6 12 Oeste 18 Oeste 0 -- -- 98
2019-12-08 16:00:00 10.7 11 Sudoeste 22 Sudoeste 0.2 -- -- 97
2019-12-08 15:00:00 10.6 10 Oeste 22 Sudoeste 0 -- -- 97
2019-12-08 14:00:00 10.2 9 Sudoeste 19 Sudoeste 0.8 -- -- 97
2019-12-08 13:00:00 8.7 2 Noroeste 19 Oeste 1.2 -- -- 96
2019-12-08 12:00:00 8.8 2 Noroeste 14 Sudoeste 0.2 -- -- 97
2019-12-08 11:00:00 7.8 5 Oeste 10 Sudoeste 0 -- -- 98
2019-12-08 10:00:00 6.1 4 Oeste 7 Noroeste 0 -- -- 98
2019-12-08 09:00:00 6.3 10 Sur 21 Sur 0 -- -- 96
2019-12-08 08:00:00 6.1 15 Sur 21 Sur 0 -- -- 97
2019-12-08 07:00:00 5.2 2 Oeste 4 Sudoeste 0 -- -- 97
2019-12-08 06:00:00 5 2 Noroeste 18 Sur 0 -- -- 97
2019-12-08 05:00:00 4.7 0 Calma 6 Sur 0 -- -- 97
2019-12-08 04:00:00 4.7 3 Sudoeste 21 Sur 0 -- -- 98
2019-12-08 03:00:00 5.4 7 Sudoeste 17 Sudoeste 0 -- -- 96
2019-12-08 02:00:00 4.9 6 Sudoeste 18 Sudoeste 0 -- -- 94
2019-12-08 01:00:00 4.3 3 Oeste 17 Sur 0 -- -- 92
2019-12-08 00:00:00 5.1 8 Sudoeste 18 Sur 0 -- -- 90
2019-12-07 23:00:00 4.4 3 Oeste 12 Sudoeste 0 -- -- 94
2019-12-07 22:00:00 7.5 10 Sudoeste 13 Sudoeste 0 -- -- 82
2019-12-07 21:00:00 6.9 4 Oeste 14 Sudoeste 0 -- -- 84
2019-12-07 20:00:00 8.5 11 Sudoeste 14 Sudoeste 0 -- -- 81
2019-12-07 19:00:00 7.6 6 Sudoeste 10 Oeste 0 -- -- 87
2019-12-07 18:00:00 8.5 4 Oeste 9 Oeste 0 -- -- 80
2019-12-07 17:00:00 13.7 5 Oeste 13 Oeste 0 -- -- 63
2019-12-07 16:00:00 13.9 6 Oeste 12 Oeste 0 -- -- 65
2019-12-07 15:00:00 12.8 6 Oeste 10 Oeste 0 -- -- 78
2019-12-07 14:00:00 8.5 0 Calma 6 Noroeste 0 -- -- 96
2019-12-07 13:00:00 6.8 0 Calma 13 Noroeste 0 -- -- 97
2019-12-07 12:00:00 5.5 2 Sudeste 6 Noroeste 0 -- -- 98
2019-12-07 11:00:00 4 2 Norte 6 Nordeste 0 -- -- 99
2019-12-07 10:00:00 2.8 0 Calma 4 Noroeste 0 -- -- 99
2019-12-07 09:00:00 1.7 3 Sur 9 Sudeste 0 -- -- 99
2019-12-07 08:00:00 1.9 2 Este 6 Sudeste 0 -- -- 99
2019-12-07 07:00:00 2.3 8 Sudeste 10 Sudeste 0 -- -- 98
2019-12-07 06:00:00 3 4 Sudoeste 12 Sur 0 -- -- 98
2019-12-07 05:00:00 4.1 0 Calma 7 Sudeste 0 -- -- 98
2019-12-07 04:00:00 3.9 0 Calma 4 Noroeste 0 -- -- 97
2019-12-07 03:00:00 5.1 3 Sur 9 Sur 0 -- -- 97
2019-12-07 02:00:00 4.3 3 Sur 6 Sur 0 -- -- 96
2019-12-07 01:00:00 3.9 2 Sudoeste 15 Sur 0 -- -- 97
2019-12-07 00:00:00 5.5 6 Sur 13 Sur 0 -- -- 92
2019-12-06 23:00:00 5.5 0 Calma 5 Noroeste 0 -- -- 91
2019-12-06 22:00:00 6.6 0 Calma 4 Noroeste 0 -- -- 87
2019-12-06 21:00:00 7.2 2 Oeste 8 Sur 0 -- -- 84
2019-12-06 20:00:00 6.5 0 Calma 5 Oeste 0 -- -- 84
2019-12-06 19:00:00 7 2 Sudoeste 5 Noroeste 0 -- -- 80
2019-12-06 18:00:00 7.1 4 Sudeste 4 Sudeste 0 -- -- 82
2019-12-06 17:00:00 13.3 2 Noroeste 4 Noroeste 0 -- -- 60
2019-12-06 16:00:00 13.3 0 Calma 5 Noroeste 0 -- -- 61
2019-12-06 15:00:00 9.4 0 Calma 8 Noroeste 0 -- -- 75
2019-12-06 14:00:00 10.3 5 Norte 9 Nordeste 0 -- -- 71
2019-12-06 13:00:00 8.5 4 Noroeste 9 Nordeste 0 -- -- 75
2019-12-06 12:00:00 8 4 Nordeste 7 Nordeste 0 -- -- 77
2019-12-06 11:00:00 5.7 4 Nordeste 8 Norte 0 -- -- 84
2019-12-06 10:00:00 3.9 0 Calma 8 Este 0 -- -- 93
2019-12-06 09:00:00 1.7 5 Este 13 Sudeste 0 -- -- 97
2019-12-06 08:00:00 1.8 3 Nordeste 17 Sudeste 0 -- -- 96
2019-12-06 07:00:00 1.5 6 Este 13 Este 0 -- -- 97
2019-12-06 06:00:00 2.8 11 Sudeste 15 Este 0 -- -- 98
2019-12-06 05:00:00 2.3 5 Este 9 Nordeste 0 -- -- 98
2019-12-06 04:00:00 2.9 4 Nordeste 10 Este 0 -- -- 97
2019-12-06 03:00:00 2.8 9 Este 17 Este 0 -- -- 96
2019-12-06 02:00:00 3.5 13 Este 19 Este 0 -- -- 96
2019-12-06 01:00:00 3.7 3 Nordeste 14 Nordeste 0 -- -- 95
2019-12-06 00:00:00 3.9 6 Este 13 Este 0 -- -- 94
2019-12-05 23:00:00 4.8 8 Nordeste 16 Este 0 -- -- 92
2019-12-05 22:00:00 5.7 10 Este 19 Este 0 -- -- 88
2019-12-05 21:00:00 6.5 10 Este 23 Este 0 -- -- 85
2019-12-05 20:00:00 6.9 12 Este 21 Nordeste 0 -- -- 85
2019-12-05 19:00:00 7.4 9 Nordeste 15 Nordeste 0 -- -- 82
2019-12-05 18:00:00 8.6 8 Nordeste 23 Nordeste 0 -- -- 78
2019-12-05 17:00:00 9.6 11 Nordeste 22 Nordeste 0 -- -- 73
2019-12-05 16:00:00 10.1 14 Este 31 Este 0 -- -- 72
2019-12-05 15:00:00 10.2 16 Este 34 Nordeste 0 -- -- 71
2019-12-05 14:00:00 9.6 19 Nordeste 36 Nordeste 0 -- -- 75
2019-12-05 13:00:00 9.2 22 Este 32 Este 0 -- -- 75
2019-12-05 12:00:00 9 11 Nordeste 21 Este 0 -- -- 75
2019-12-05 11:00:00 3.3 2 Este 6 Este 0 -- -- 94
2019-12-05 10:00:00 3.1 3 Nordeste 14 Este 0 -- -- 94
2019-12-05 09:00:00 1.6 9 Este 15 Este 0 -- -- 97
2019-12-05 08:00:00 1.5 7 Este 14 Este 0 -- -- 96
2019-12-05 07:00:00 1.1 7 Este 12 Nordeste 0 -- -- 94
2019-12-05 06:00:00 0.9 5 Este 8 Este 0 -- -- 95
2019-12-05 05:00:00 1.2 4 Nordeste 9 Este 0 -- -- 93
2019-12-05 04:00:00 1.8 5 Este 17 Este 0 -- -- 90
2019-12-05 03:00:00 2.3 9 Este 18 Este 0 -- -- 88
2019-12-05 02:00:00 2.6 12 Este 16 Este 0 -- -- 87
2019-12-05 01:00:00 3.4 10 Este 19 Este 0 -- -- 88
2019-12-05 00:00:00 4.3 12 Este 17 Este 0 -- -- 91
2019-12-04 23:00:00 4.3 6 Este 15 Este 0 -- -- 93
2019-12-04 22:00:00 4.5 5 Este 9 Este 0 -- -- 92
2019-12-04 21:00:00 4.8 4 Nordeste 10 Este 0 -- -- 92
2019-12-04 20:00:00 6 5 Este 16 Este 0 -- -- 87
2019-12-04 19:00:00 6.5 12 Este 16 Este 0 -- -- 84
2019-12-04 18:00:00 7.3 9 Este 14 Nordeste 0 -- -- 80
2019-12-04 17:00:00 8 9 Nordeste 22 Este 0 -- -- 77
2019-12-04 16:00:00 8.6 9 Nordeste 15 Nordeste 0 -- -- 74
2019-12-04 15:00:00 8.1 3 Noroeste 10 Este 0 -- -- 74
2019-12-04 14:00:00 8.2 4 Nordeste 9 Nordeste 0 -- -- 71
2019-12-04 13:00:00 5.5 3 Norte 8 Norte 0 -- -- 79
2019-12-04 12:00:00 3.4 3 Noroeste 8 Norte 0 -- -- 84
2019-12-04 11:00:00 3.9 0 Calma 9 Nordeste 0 -- -- 79
2019-12-04 10:00:00 2.5 3 Este 6 Nordeste 0 -- -- 88
2019-12-04 09:00:00 -1.2 4 Nordeste 12 Este 0 -- -- 96
2019-12-04 08:00:00 -1.1 10 Este 16 Este 0 -- -- 97
2019-12-04 07:00:00 -1.4 11 Este 17 Este 0 -- -- 98
2019-12-04 06:00:00 -1.8 8 Este 9 Este 0 -- -- 98
2019-12-04 05:00:00 -1.8 6 Este 9 Este 0 -- -- 97
2019-12-04 04:00:00 -1.6 0 Calma 6 Nordeste 0 -- -- 97
2019-12-04 03:00:00 -1.2 3 Este 11 Este 0 -- -- 96
2019-12-04 02:00:00 -1.2 6 Este 9 Este 0 -- -- 96
2019-12-04 01:00:00 -0.9 2 Norte 5 Norte 0 -- -- 96
2019-12-04 00:00:00 -0.4 0 Calma 2 Norte 0 -- -- 95
2019-12-03 23:00:00 0.8 0 Calma 17 Este 0 -- -- 88
2019-12-03 22:00:00 1.1 8 Este 16 Nordeste 0 -- -- 89
2019-12-03 21:00:00 2.3 11 Este 19 Este 0 -- -- 85
2019-12-03 20:00:00 3.2 9 Nordeste 19 Este 0 -- -- 82
2019-12-03 19:00:00 3.1 8 Nordeste 12 Este 0 -- -- 82
2019-12-03 18:00:00 4 6 Este 17 Nordeste 0 -- -- 76
2019-12-03 17:00:00 7.1 10 Nordeste 23 Nordeste 0 -- -- 65
2019-12-03 16:00:00 6.4 14 Este 30 Este 0 -- -- 67
2019-12-03 15:00:00 6 17 Nordeste 28 Nordeste 0 -- -- 68
2019-12-03 14:00:00 5.9 14 Nordeste 35 Este 0 -- -- 70
2019-12-03 13:00:00 5 22 Este 39 Este 0 -- -- 72
2019-12-03 12:00:00 6 26 Este 40 Este 0 -- -- 68
2019-12-03 11:00:00 5.3 20 Este 34 Este 0 -- -- 72
2019-12-03 10:00:00 3.1 14 Este 23 Nordeste 0 -- -- 80
2019-12-03 09:00:00 0.4 10 Este 21 Este 0 -- -- 90
2019-12-03 08:00:00 0.8 11 Este 28 Este 0 -- -- 87
2019-12-03 07:00:00 1.4 20 Este 38 Este 0 -- -- 84
2019-12-03 06:00:00 1.6 18 Este 38 Este 0 -- -- 84
2019-12-03 05:00:00 2 20 Este 33 Este 0 -- -- 83
2019-12-03 04:00:00 2 18 Este 36 Este 0 -- -- 84
2019-12-03 03:00:00 2.3 22 Este 41 Este 0 -- -- 83
2019-12-03 02:00:00 2.6 23 Este 48 Este 0 -- -- 80
2019-12-03 01:00:00 2.6 22 Este 49 Este 0 -- -- 79
2019-12-03 00:00:00 3 21 Este 42 Este 0 -- -- 75
2019-12-02 23:00:00 3.4 21 Este 48 Nordeste 0 -- -- 75
2019-12-02 22:00:00 4.2 27 Este 44 Este 0 -- -- 73
2019-12-02 21:00:00 5 27 Este 46 Este 0 -- -- 73
2019-12-02 20:00:00 6 29 Este 46 Este 0 -- -- 74
2019-12-02 19:00:00 6.8 30 Este 55 Este 0 -- -- 70
2019-12-02 18:00:00 7.6 28 Este 50 Este 0 -- -- 69
2019-12-02 17:00:00 8.7 27 Este 52 Este 0 -- -- 66
2019-12-02 16:00:00 9.7 25 Este 49 Este 0 -- -- 65
2019-12-02 15:00:00 10.2 25 Nordeste 61 Este 0 -- -- 67
2019-12-02 14:00:00 10.6 34 Nordeste 87 Nordeste 0 -- -- 64
2019-12-02 13:00:00 8.9 29 Este 58 Nordeste 0 -- -- 71
2019-12-02 12:00:00 9.2 31 Nordeste 50 Este 0 -- -- 70
2019-12-02 11:00:00 8.2 24 Nordeste 44 Nordeste 0 -- -- 74
2019-12-02 10:00:00 5.5 20 Este 32 Nordeste 0.2 -- -- 81
2019-12-02 09:00:00 3.8 21 Este 33 Este 0 -- -- 88
2019-12-02 08:00:00 2.6 13 Este 25 Nordeste 0 -- -- 92
2019-12-02 07:00:00 2.8 14 Nordeste 23 Nordeste 0 -- -- 92
2019-12-02 06:00:00 3.1 12 Nordeste 30 Este 0 -- -- 91
2019-12-02 05:00:00 3.5 13 Nordeste 23 Nordeste 0 -- -- 88
2019-12-02 04:00:00 4.5 15 Nordeste 31 Nordeste 0 -- -- 84
2019-12-02 03:00:00 5 18 Nordeste 34 Nordeste 0 -- -- 86
2019-12-02 02:00:00 5.3 15 Nordeste 33 Nordeste 0 -- -- 86
2019-12-02 01:00:00 6.3 18 Nordeste 30 Nordeste 0 -- -- 82
2019-12-02 00:00:00 6.2 15 Nordeste 24 Nordeste 0 -- -- 87
2019-12-01 23:00:00 6.2 13 Nordeste 25 Nordeste 0 -- -- 91
2019-12-01 22:00:00 5.5 12 Este 18 Este 0 -- -- 94
2019-12-01 21:00:00 5.4 9 Nordeste 21 Nordeste 0 -- -- 94
2019-12-01 20:00:00 5.6 10 Nordeste 23 Nordeste 0 -- -- 92
2019-12-01 19:00:00 6.5 13 Nordeste 29 Nordeste 0 -- -- 89
2019-12-01 18:00:00 7.8 15 Nordeste 33 Nordeste 0 -- -- 87
2019-12-01 17:00:00 8.7 15 Nordeste 29 Nordeste 0 -- -- 85
2019-12-01 16:00:00 9 16 Nordeste 28 Este 0 -- -- 85
2019-12-01 15:00:00 8.8 13 Nordeste 27 Nordeste 0 -- -- 91
2019-12-01 14:00:00 7.7 15 Nordeste 31 Nordeste 0.4 -- -- 92
2019-12-01 13:00:00 11.7 3 Nordeste 6 Norte 0 -- -- 80
2019-12-01 12:00:00 9.6 5 Norte 11 Sudoeste 0 -- -- 88
2019-12-01 11:00:00 8.4 7 Sudoeste 21 Sur 0 -- -- 90
2019-12-01 10:00:00 7.4 12 Sur 23 Sur 0.2 -- -- 95
2019-12-01 09:00:00 6.7 15 Sur 26 Sur 0 -- -- 95
2019-12-01 08:00:00 6.4 16 Sur 31 Sur 0.2 -- -- 95
2019-12-01 07:00:00 6.4 17 Sur 30 Sudoeste 0 -- -- 92
2019-12-01 06:00:00 6.7 13 Sur 30 Sur 1.2 -- -- 96
2019-12-01 05:00:00 6.5 17 Sur 33 Sur 0.2 -- -- 96
2019-12-01 04:00:00 6.6 18 Sur 30 Sudoeste 0.4 -- -- 95
2019-12-01 03:00:00 6.3 20 Sur 34 Sur 0.6 -- -- 95
2019-12-01 02:00:00 6.9 14 Sur 35 Sur 0 -- -- 92
2019-12-01 01:00:00 7.1 17 Sudoeste 31 Sudoeste 0 -- -- 93
2019-12-01 00:00:00 6.6 15 Sur 26 Sur 0 -- -- 94
2019-11-30 23:00:00 5.8 14 Sur 26 Sudoeste 0 -- -- 92
2019-11-30 22:00:00 5.7 15 Sur 23 Sudoeste 0 -- -- 90
2019-11-30 21:00:00 6.9 13 Sudoeste 26 Oeste 0 -- -- 86
2019-11-30 20:00:00 7.7 17 Oeste 28 Sudoeste 0 -- -- 86
2019-11-30 19:00:00 8.1 18 Oeste 29 Oeste 0 -- -- 81
2019-11-30 18:00:00 8.6 19 Oeste 34 Oeste 0 -- -- 80
2019-11-30 17:00:00 9.9 21 Oeste 33 Oeste 0 -- -- 79
2019-11-30 16:00:00 8.2 21 Oeste 58 Noroeste 0.2 -- -- 85
2019-11-30 15:00:00 9.7 23 Oeste 40 Oeste 0.4 -- -- 95
2019-11-30 14:00:00 10.2 17 Oeste 39 Oeste 0.2 -- -- 93
2019-11-30 13:00:00 10 24 Oeste 53 Oeste 1.2 -- -- 95
2019-11-30 12:00:00 12.6 22 Sudoeste 44 Sudoeste 0.2 -- -- 95
2019-11-30 11:00:00 12.1 25 Sudoeste 49 Sudoeste 0.2 -- -- 96
2019-11-30 10:00:00 11.9 21 Sudoeste 42 Sudoeste 0.8 -- -- 97
2019-11-30 09:00:00 11.7 23 Sudoeste 37 Sudoeste 0.6 -- -- 97
2019-11-30 08:00:00 11.8 23 Sudoeste 42 Sudoeste 0.4 -- -- 97
2019-11-30 07:00:00 11.9 20 Sudoeste 38 Sudoeste 0.2 -- -- 96
2019-11-30 06:00:00 11.6 23 Sur 37 Sur 0.6 -- -- 97
2019-11-30 05:00:00 11.7 17 Sudoeste 33 Sudoeste 0 -- -- 95
2019-11-30 04:00:00 12.1 21 Sudoeste 37 Sudoeste 0 -- -- 92
2019-11-30 03:00:00 12.1 18 Sudoeste 32 Sudoeste 0 -- -- 92
2019-11-30 02:00:00 12.4 22 Sudoeste 41 Sudoeste 0 -- -- 91
2019-11-30 01:00:00 12.4 22 Sudoeste 36 Sudoeste 0 -- -- 92
2019-11-30 00:00:00 12.5 18 Sudoeste 35 Sudoeste 0 -- -- 93
2019-11-29 23:00:00 12.5 18 Sudoeste 32 Sudoeste 0 -- -- 94
2019-11-29 22:00:00 12.5 17 Sudoeste 28 Sudoeste 0 -- -- 95
2019-11-29 21:00:00 12.3 17 Sudoeste 31 Sudoeste 3.4 -- -- 97
2019-11-29 20:00:00 12.3 12 Oeste 21 Sudoeste 4.4 -- -- 97
2019-11-29 19:00:00 12.6 8 Sudoeste 24 Sur 0 -- -- 94
2019-11-29 18:00:00 13.1 12 Sudoeste 18 Sudoeste 0 -- -- 92
2019-11-29 17:00:00 13.7 14 Sudoeste 23 Oeste 0 -- -- 89
2019-11-29 16:00:00 14.1 9 Oeste 26 Oeste 0 -- -- 90
2019-11-29 15:00:00 13.8 12 Oeste 20 Sudoeste 0 -- -- 93
2019-11-29 14:00:00 13.1 5 Oeste 14 Noroeste 0 -- -- 95
2019-11-29 13:00:00 13 8 Sudoeste 16 Sudoeste 0 -- -- 92
2019-11-29 12:00:00 13 9 Oeste 14 Oeste 0 -- -- 96
2019-11-29 11:00:00 11.8 8 Sudoeste 12 Sudoeste 0 -- -- 99
2019-11-29 10:00:00 11.7 5 Oeste 14 Oeste 0 -- -- 99
2019-11-29 09:00:00 11.7 8 Oeste 18 Oeste 0 -- -- 99
2019-11-29 08:00:00 11.8 9 Oeste 16 Sudoeste 0.4 -- -- 99
2019-11-29 07:00:00 11.7 9 Sudoeste 18 Sudoeste 0 -- -- 99
2019-11-29 06:00:00 11.9 8 Sudoeste 15 Oeste 0 -- -- 98
2019-11-29 05:00:00 11.8 9 Sudoeste 22 Sudoeste 0 -- -- 98
2019-11-29 04:00:00 11.7 14 Sudoeste 27 Sudoeste 0 -- -- 97
2019-11-29 03:00:00 11.7 18 Sudoeste 30 Sudoeste 0 -- -- 98
2019-11-29 02:00:00 11.6 19 Sudoeste 32 Sudoeste 0 -- -- 97
2019-11-29 01:00:00 11.6 21 Sudoeste 36 Sudoeste 0 -- -- 97
2019-11-29 00:00:00 11.7 23 Sudoeste 42 Sudoeste 1.2 -- -- 97
2019-11-28 23:00:00 11.4 23 Sudoeste 38 Sur 1.8 -- -- 97
2019-11-28 22:00:00 11.1 21 Sudoeste 38 Sudoeste 1.4 -- -- 96
2019-11-28 21:00:00 11.3 22 Sudoeste 43 Sudoeste 0.4 -- -- 94
2019-11-28 20:00:00 11.2 28 Sudoeste 51 Sudoeste 0.4 -- -- 93
2019-11-28 19:00:00 12.3 27 Sudoeste 53 Sudoeste 0 -- -- 81
2019-11-28 18:00:00 12.2 31 Sudoeste 55 Sudoeste 0 -- -- 83
2019-11-28 17:00:00 12.4 32 Sudoeste 54 Sudoeste 0 -- -- 80
2019-11-28 16:00:00 12.7 29 Sudoeste 53 Sudoeste 0 -- -- 77
2019-11-28 15:00:00 13 25 Sudoeste 48 Sudoeste 0 -- -- 80
2019-11-28 14:00:00 12.8 24 Sudoeste 46 Oeste 0 -- -- 79
2019-11-28 13:00:00 12.1 22 Sudoeste 46 Sudoeste 0 -- -- 85
2019-11-28 12:00:00 12.1 22 Sudoeste 38 Sudoeste 0 -- -- 86
2019-11-28 11:00:00 10.9 21 Sudoeste 36 Sudoeste 0.2 -- -- 93
2019-11-28 10:00:00 9.9 19 Sudoeste 35 Sur 0.2 -- -- 95
2019-11-28 09:00:00 10.3 19 Sudoeste 34 Sudoeste 0 -- -- 91
2019-11-28 08:00:00 10.2 18 Sudoeste 35 Sudoeste 0 -- -- 93
2019-11-28 07:00:00 9.9 18 Sudoeste 35 Sudoeste 0 -- -- 93
2019-11-28 06:00:00 9.6 22 Sudoeste 37 Sudoeste 0 -- -- 93
2019-11-28 05:00:00 9.4 23 Sudoeste 40 Sudoeste 0 -- -- 94
2019-11-28 04:00:00 9.2 24 Sudoeste 39 Sudoeste 0 -- -- 94
2019-11-28 03:00:00 9.6 24 Sudoeste 42 Sudoeste 0 -- -- 94
2019-11-28 02:00:00 9.4 19 Sudoeste 40 Sudoeste 0 -- -- 94
2019-11-28 01:00:00 9.3 19 Sudoeste 39 Sudoeste 0 -- -- 94
2019-11-28 00:00:00 9.2 19 Sudoeste 39 Sudoeste 0 -- -- 96
2019-11-27 23:00:00 8.9 22 Sudoeste 35 Sudoeste 0.2 -- -- 96
2019-11-27 22:00:00 8.8 20 Sudoeste 35 Sudoeste 0 -- -- 94
2019-11-27 21:00:00 8.7 16 Sudoeste 30 Sudoeste 0 -- -- 96
2019-11-27 20:00:00 8.8 15 Oeste 36 Sudoeste 0.8 -- -- 96
2019-11-27 19:00:00 9.4 22 Sudoeste 36 Sudoeste 0 -- -- 91
2019-11-27 18:00:00 9.4 19 Sudoeste 39 Sudoeste 0 -- -- 88
2019-11-27 17:00:00 11 22 Sudoeste 39 Sudoeste 0 -- -- 77
2019-11-27 16:00:00 11.7 28 Sudoeste 49 Sudoeste 0 -- -- 74
2019-11-27 15:00:00 11.4 27 Sudoeste 46 Sudoeste 0 -- -- 80
2019-11-27 14:00:00 12 31 Sudoeste 55 Sudoeste 0 -- -- 77
2019-11-27 06:00:00 -- -- -- -- -- -- -- -- --
2019-11-27 05:00:00 8.3 14 Sudoeste 37 Sudoeste 0 -- -- 89
2019-11-27 04:00:00 8.3 20 Sudoeste 33 Sudoeste 0 -- -- 89
2019-11-27 03:00:00 8.6 13 Sudoeste 38 Sudoeste 0 -- -- 84
2019-11-27 02:00:00 8.7 26 Oeste 42 Oeste 0 -- -- 82
2019-11-27 01:00:00 9.3 23 Sudoeste 40 Sudoeste 0 -- -- 81
2019-11-27 00:00:00 9.6 23 Sudoeste 53 Oeste 0 -- -- 82
2019-11-26 23:00:00 9.8 33 Oeste 58 Oeste 0 -- -- 80
2019-11-26 22:00:00 10.1 14 Oeste 37 Sudoeste 1 -- -- 96
2019-11-26 21:00:00 10.4 22 Oeste 50 Oeste 0.4 -- -- 95
2019-11-26 20:00:00 10.3 40 Oeste 63 Sudoeste 0.8 -- -- 91
2019-11-26 19:00:00 12.6 30 Sudoeste 53 Oeste 0 -- -- 84
2019-11-26 18:00:00 12.7 24 Sudoeste 50 Sudoeste 0 -- -- 79
2019-11-26 17:00:00 13.5 34 Oeste 51 Oeste 0 -- -- 80
2019-11-26 16:00:00 14.2 24 Oeste 49 Oeste 0.2 -- -- 92
2019-11-26 15:00:00 13.8 24 Sudoeste 48 Sur 2 -- -- 93
2019-11-26 14:00:00 14 20 Sudoeste 40 Sudoeste 0.6 -- -- 94
2019-11-26 13:00:00 13.7 21 Sudoeste 46 Sudoeste 1.2 -- -- 96
2019-11-26 12:00:00 12.9 21 Sudoeste 38 Sudoeste 1 -- -- 96
2019-11-26 11:00:00 12.5 21 Sudoeste 37 Sudoeste 0.6 -- -- 97
2019-11-26 10:00:00 12 22 Sur 37 Sudoeste 0.6 -- -- 97
2019-11-26 09:00:00 11.6 20 Sur 33 Sur 0.4 -- -- 97
2019-11-26 08:00:00 11.6 14 Sudoeste 28 Sudoeste 0.4 -- -- 96
2019-11-26 07:00:00 11.5 16 Sudoeste 35 Sudoeste 0.4 -- -- 96
2019-11-26 06:00:00 11.3 22 Sudoeste 37 Sudoeste 0 -- -- 96
2019-11-26 05:00:00 11.1 20 Sudoeste 35 Sudoeste 0 -- -- 93
2019-11-26 04:00:00 10.8 20 Sur 36 Sur 0 -- -- 89
2019-11-26 03:00:00 10.4 13 Sudoeste 27 Sur 0 -- -- 91
2019-11-26 02:00:00 10.8 9 Sur 23 Sur 0 -- -- 86
2019-11-26 01:00:00 11 16 Sudoeste 30 Sudoeste 0 -- -- 88
2019-11-26 00:00:00 10.4 17 Sudoeste 32 Sudoeste 0 -- -- 91
2019-11-25 23:00:00 11 17 Sudoeste 30 Sudoeste 0 -- -- 93
2019-11-25 22:00:00 11.1 16 Sudoeste 25 Sudoeste 0 -- -- 91
2019-11-25 21:00:00 10.9 13 Sudoeste 21 Sudoeste 0 -- -- 92
2019-11-25 20:00:00 11.2 10 Sudoeste 18 Sudoeste 0 -- -- 87
2019-11-25 19:00:00 11.4 9 Sudoeste 21 Oeste 0 -- -- 83
2019-11-25 18:00:00 11.8 13 Oeste 22 Oeste 0 -- -- 81
2019-11-25 17:00:00 12.7 18 Oeste 26 Sudoeste 0 -- -- 77
2019-11-25 16:00:00 13.1 18 Oeste 36 Oeste 0 -- -- 74
2019-11-25 15:00:00 13.4 23 Oeste 36 Noroeste 0 -- -- 71
2019-11-25 14:00:00 13 24 Oeste 34 Oeste 0 -- -- 76
2019-11-25 13:00:00 11.9 24 Oeste 40 Oeste 0 -- -- 87
2019-11-25 12:00:00 12.6 18 Oeste 31 Oeste 0 -- -- 83
2019-11-25 11:00:00 12 18 Oeste 34 Sudoeste 0 -- -- 88
2019-11-25 10:00:00 11.4 21 Sudoeste 32 Sudoeste 0 -- -- 91
2019-11-25 09:00:00 10.6 16 Sur 28 Sudoeste 0 -- -- 94
2019-11-25 08:00:00 10.7 18 Sudoeste 36 Sudoeste 0 -- -- 94
2019-11-25 07:00:00 10.7 23 Sudoeste 37 Sudoeste 0 -- -- 94
2019-11-25 06:00:00 10.7 18 Sur 27 Sur 0 -- -- 94
2019-11-25 05:00:00 10.7 15 Sudoeste 38 Oeste 0 -- -- 92
2019-11-25 04:00:00 10.7 17 Sudoeste 35 Sudoeste 0 -- -- 92
2019-11-25 03:00:00 10.8 19 Sudoeste 37 Oeste 0 -- -- 92
2019-11-25 02:00:00 10.7 18 Sudoeste 43 Oeste 0 -- -- 95
2019-11-25 01:00:00 11.2 30 Oeste 49 Sudoeste 0.4 -- -- 96
2019-11-25 00:00:00 10.4 27 Sudoeste 49 Sudoeste 0.8 -- -- 96
2019-11-24 23:00:00 10.2 31 Sudoeste 52 Sudoeste 0 -- -- 95
2019-11-24 22:00:00 9.9 28 Sudoeste 46 Sur 0.2 -- -- 95
2019-11-24 21:00:00 9.2 22 Sudoeste 41 Sur 0.2 -- -- 96
2019-11-24 20:00:00 9.4 24 Sur 40 Sur 0 -- -- 92
2019-11-24 19:00:00 9.2 22 Sudoeste 38 Sudoeste 0 -- -- 91
2019-11-24 18:00:00 8.8 18 Sudoeste 33 Sudoeste 0 -- -- 91
2019-11-24 17:00:00 9.2 15 Sudoeste 35 Oeste 0 -- -- 90
2019-11-24 16:00:00 9.8 18 Sudoeste 32 Sudoeste 0 -- -- 85
2019-11-24 15:00:00 9.7 18 Sudoeste 29 Oeste 0 -- -- 82
2019-11-24 14:00:00 9.4 18 Oeste 31 Oeste 0 -- -- 79
2019-11-24 13:00:00 8.7 15 Oeste 24 Oeste 0 -- -- 83
2019-11-24 12:00:00 7.6 11 Sudoeste 26 Sur 0 -- -- 88
2019-11-24 11:00:00 6 14 Sur 23 Sur 0 -- -- 91
2019-11-24 10:00:00 4.7 15 Sur 24 Sur 0 -- -- 94
2019-11-24 09:00:00 3.7 18 Sur 24 Sur 0 -- -- 96
2019-11-24 08:00:00 3.3 13 Sur 20 Sur 0 -- -- 96
2019-11-24 07:00:00 3.7 10 Sur 19 Oeste 0 -- -- 95
2019-11-24 06:00:00 4.2 12 Oeste 22 Oeste 0 -- -- 96
2019-11-24 05:00:00 4.4 18 Oeste 27 Sudoeste 0 -- -- 94
2019-11-24 04:00:00 4.4 14 Sudoeste 26 Sudoeste 0 -- -- 94
2019-11-24 03:00:00 4.6 10 Sur 26 Sudoeste 0 -- -- 94
2019-11-24 02:00:00 5 12 Sur 24 Oeste 0 -- -- 91
2019-11-24 01:00:00 6.1 15 Oeste 36 Oeste 0 -- -- 87
2019-11-24 00:00:00 6.3 22 Oeste 33 Oeste 0 -- -- 86
2019-11-23 23:00:00 7 18 Oeste 36 Oeste 0 -- -- 84
2019-11-23 22:00:00 7.3 18 Oeste 28 Oeste 0.2 -- -- 83
2019-11-23 21:00:00 7.1 15 Oeste 29 Noroeste 0 -- -- 86
2019-11-23 20:00:00 7.8 13 Oeste 35 Oeste 0 -- -- 78
2019-11-23 19:00:00 8.5 14 Oeste 32 Oeste 0 -- -- 73
2019-11-23 18:00:00 9.2 22 Oeste 39 Oeste 0 -- -- 66
2019-11-23 17:00:00 9.5 17 Oeste 36 Oeste 0 -- -- 62
2019-11-23 16:00:00 11.3 29 Oeste 44 Oeste 0 -- -- 56
2019-11-23 15:00:00 10.9 28 Noroeste 44 Noroeste 0 -- -- 60
2019-11-23 14:00:00 9.9 26 Noroeste 43 Oeste 0 -- -- 64
2019-11-23 13:00:00 8.9 17 Oeste 37 Oeste 0 -- -- 70
2019-11-23 12:00:00 8.4 23 Oeste 44 Oeste 0 -- -- 73
2019-11-23 11:00:00 7.1 21 Oeste 38 Oeste 0.2 -- -- 74
2019-11-23 10:00:00 7.7 20 Oeste 30 Sudoeste 0 -- -- 73
2019-11-23 09:00:00 6 13 Oeste 41 Oeste 0 -- -- 80
2019-11-23 08:00:00 5.3 15 Sudoeste 38 Oeste 0 -- -- 86
2019-11-23 07:00:00 5.2 24 Oeste 40 Oeste 0 -- -- 86
2019-11-23 06:00:00 5.3 25 Oeste 55 Oeste 0 -- -- 80
2019-11-23 05:00:00 5.7 33 Oeste 59 Oeste 0 -- -- 77
2019-11-23 04:00:00 5.9 31 Oeste 59 Oeste 0 -- -- 79
2019-11-23 03:00:00 6.2 32 Oeste 54 Oeste 0 -- -- 82
2019-11-23 02:00:00 6.4 39 Oeste 59 Oeste 0 -- -- 82
2019-11-23 01:00:00 6.6 28 Oeste 63 Sudoeste 0 -- -- 83
2019-11-23 00:00:00 6.6 35 Oeste 64 Oeste 0.2 -- -- 87
2019-11-22 23:00:00 6.8 31 Oeste 66 Oeste 2.6 -- -- 92
2019-11-22 22:00:00 7.7 36 Oeste 61 Oeste 0 -- -- 89
2019-11-22 21:00:00 8.3 33 Oeste 59 Oeste 1.4 -- -- 90
2019-11-22 20:00:00 8.8 27 Sudoeste 51 Oeste 0 -- -- 87
2019-11-22 19:00:00 9.1 30 Oeste 46 Oeste 0 -- -- 82
2019-11-22 18:00:00 9.2 20 Sudoeste 56 Oeste 0.2 -- -- 84
2019-11-22 17:00:00 8.9 21 Oeste 60 Oeste 0.2 -- -- 89
2019-11-22 16:00:00 10.2 29 Oeste 51 Oeste 0 -- -- 81
2019-11-22 15:00:00 10.2 26 Sudoeste 59 Oeste 1.6 -- -- 89
2019-11-22 14:00:00 12.5 31 Oeste 58 Oeste 1.8 -- -- 82
2019-11-22 13:00:00 11.8 22 Sudoeste 53 Sudoeste 0.2 -- -- 94
2019-11-22 12:00:00 10.4 33 Sudoeste 61 Sudoeste 3.4 -- -- 95
2019-11-22 11:00:00 10.3 32 Sur 66 Sur 0.8 -- -- 91
2019-11-22 10:00:00 10 32 Sur 63 Sur 0.4 -- -- 90
2019-11-22 09:00:00 9 28 Sur 48 Sur 0.2 -- -- 93
2019-11-22 08:00:00 8.2 27 Sur 57 Sur 0.6 -- -- 94
2019-11-22 07:00:00 7.8 24 Sur 45 Sur 1 -- -- 93
2019-11-22 06:00:00 7.5 22 Sur 40 Sur 1 -- -- 93
2019-11-22 05:00:00 7.5 18 Sur 36 Sudoeste 0.8 -- -- 93
2019-11-22 04:00:00 7.7 15 Sudoeste 33 Sudoeste 0.6 -- -- 95
2019-11-22 03:00:00 7.6 13 Sur 25 Sur 0 -- -- 93
2019-11-22 02:00:00 7.4 11 Sur 23 Sudoeste 0 -- -- 93
2019-11-22 01:00:00 7.3 10 Sur 21 Sudoeste 0 -- -- 94
2019-11-22 00:00:00 7.3 10 Sur 18 Sudoeste 0 -- -- 93
2019-11-21 23:00:00 7.2 12 Sur 19 Sur 0 -- -- 93
2019-11-21 22:00:00 6.9 14 Sur 24 Sur 0 -- -- 91
2019-11-21 21:00:00 7 11 Sur 19 Sudoeste 0 -- -- 90
2019-11-21 20:00:00 7.5 12 Sur 18 Sur 0 -- -- 87
2019-11-21 19:00:00 7.9 10 Sur 17 Sudoeste 0 -- -- 85
2019-11-21 18:00:00 8.5 10 Sur 17 Sur 0 -- -- 79
2019-11-21 17:00:00 11 6 Sudoeste 14 Oeste 0 -- -- 67
2019-11-21 16:00:00 11.4 9 Oeste 14 Noroeste 0 -- -- 70
2019-11-21 15:00:00 9.3 7 Noroeste 17 Oeste 1 -- -- 85
2019-11-21 14:00:00 8.7 9 Oeste 30 Oeste 0.6 -- -- 87
2019-11-21 13:00:00 8.4 12 Sudoeste 20 Oeste 0 -- -- 80
2019-11-21 12:00:00 9.2 11 Sudoeste 19 Sudoeste 0 -- -- 81
2019-11-21 11:00:00 7.5 6 Sudoeste 13 Sudoeste 0 -- -- 92
2019-11-21 10:00:00 6.9 3 Noroeste 21 Sudoeste 0 -- -- 94
2019-11-21 09:00:00 6.3 13 Oeste 19 Sudoeste 0.8 -- -- 97
2019-11-21 08:00:00 6.2 13 Sudoeste 30 Sur 0 -- -- 97
2019-11-21 07:00:00 6.1 16 Sudoeste 25 Sudoeste 0.2 -- -- 97
2019-11-21 06:00:00 5.8 16 Sudoeste 32 Sur 1 -- -- 97
2019-11-21 05:00:00 5.8 14 Sur 30 Sudoeste 0 -- -- 96
2019-11-21 04:00:00 5.7 17 Sudoeste 31 Sur 1 -- -- 96
2019-11-21 03:00:00 5.7 15 Sur 30 Sur 0 -- -- 95
2019-11-21 02:00:00 5.4 17 Sur 28 Sur 0 -- -- 96
2019-11-21 01:00:00 4.9 17 Sur 29 Sur 0 -- -- 96
2019-11-21 00:00:00 5.1 13 Sur 24 Sur 0.2 -- -- 96
2019-11-20 23:00:00 5.3 14 Sur 27 Sur 0 -- -- 94
2019-11-20 22:00:00 5.3 18 Sur 32 Sur 0 -- -- 93
2019-11-20 21:00:00 5.7 15 Sur 28 Sur 0 -- -- 92
2019-11-20 20:00:00 5.8 14 Sur 24 Sur 0 -- -- 93
2019-11-20 19:00:00 6.1 18 Sur 31 Sur 0.2 -- -- 91
2019-11-20 18:00:00 6.9 17 Sur 30 Sudoeste 0 -- -- 89
2019-11-20 17:00:00 7.5 16 Sudoeste 30 Sur 0 -- -- 87
2019-11-20 16:00:00 7.9 13 Sur 31 Sudoeste 0 -- -- 86
2019-11-20 15:00:00 7.7 15 Sudoeste 32 Sudoeste 0 -- -- 87
2019-11-20 14:00:00 7.2 18 Sur 31 Sudoeste 0 -- -- 89
2019-11-20 13:00:00 6.6 15 Sur 31 Sur 0.2 -- -- 92
2019-11-20 12:00:00 6 14 Sur 28 Sur 0.2 -- -- 94
2019-11-20 11:00:00 5.4 13 Sur 31 Sur 0 -- -- 93
2019-11-20 10:00:00 4.9 17 Sur 30 Sur 1 -- -- 94
2019-11-20 09:00:00 5.1 12 Sur 24 Sur 1 -- -- 96
2019-11-20 08:00:00 5.2 11 Sur 28 Sudoeste 0.2 -- -- 95
2019-11-20 07:00:00 5.5 15 Sur 29 Sudoeste 0.8 -- -- 96
2019-11-20 06:00:00 5.7 10 Sur 20 Sudoeste 1.2 -- -- 97
2019-11-20 05:00:00 5.5 2 Sur 6 Sur 1.4 -- -- 97
2019-11-20 04:00:00 5.3 2 Oeste 13 Sur 0.4 -- -- 96
2019-11-20 03:00:00 5 2 Sudeste 10 Sur 0.4 -- -- 97
2019-11-20 02:00:00 5.1 4 Sudeste 17 Sudoeste 1 -- -- 96
2019-11-20 01:00:00 4.8 8 Sur 15 Sudoeste 1 -- -- 94
2019-11-20 00:00:00 6 0 Calma 21 Sur 0 -- -- 86
2019-11-19 23:00:00 7.1 6 Sur 17 Sur 0 -- -- 76
2019-11-19 22:00:00 7.3 6 Sur 12 Sur 0 -- -- 78
2019-11-19 21:00:00 7.3 4 Sur 8 Sur 0 -- -- 79
2019-11-19 20:00:00 7.4 3 Sur 8 Sudoeste 0 -- -- 79
2019-11-19 19:00:00 7.5 5 Sudoeste 9 Sudoeste 0 -- -- 76
2019-11-19 18:00:00 8.2 5 Oeste 9 Oeste 0 -- -- 78
2019-11-19 17:00:00 9.1 2 Noroeste 7 Noroeste 0 -- -- 74
2019-11-19 16:00:00 9.8 3 Noroeste 7 Noroeste 0 -- -- 72
2019-11-19 15:00:00 9.4 4 Norte 9 Norte 0 -- -- 76
2019-11-19 14:00:00 8.7 2 Norte 6 Oeste 0 -- -- 85
2019-11-19 13:00:00 5.3 2 Norte 5 Noroeste 0 -- -- 94
2019-11-19 12:00:00 3.4 2 Norte 4 Norte 0 -- -- 96
2019-11-19 11:00:00 2.2 3 Nordeste 5 Nordeste 0 -- -- 96
2019-11-19 10:00:00 1.4 0 Calma 8 Oeste 0 -- -- 97
2019-11-19 09:00:00 0.2 3 Sudeste 5 Noroeste 0 -- -- 98
2019-11-19 08:00:00 -0.1 0 Calma 3 Sudeste 0 -- -- 98
2019-11-19 07:00:00 0.5 0 Calma 3 Oeste 0 -- -- 98
2019-11-19 06:00:00 0.8 0 Calma 6 Oeste 0 -- -- 95
2019-11-19 05:00:00 1.1 0 Calma 5 Sudeste 0 -- -- 95
2019-11-19 04:00:00 1.2 3 Sur 4 Sur 0 -- -- 96
2019-11-19 03:00:00 1.8 0 Calma 12 Sudoeste 0 -- -- 91
2019-11-19 02:00:00 3.3 6 Sudoeste 8 Sudeste 0 -- -- 92
2019-11-19 01:00:00 3.4 6 Este 8 Sudeste 0 -- -- 88
2019-11-19 00:00:00 4.1 2 Sudoeste 6 Sur 0 -- -- 85
2019-11-18 23:00:00 4.2 0 Calma 5 Sur 0 -- -- 84
2019-11-18 22:00:00 5.3 2 Oeste 8 Oeste 0 -- -- 80
2019-11-18 21:00:00 5.2 7 Oeste 9 Sudoeste 0 -- -- 78
2019-11-18 20:00:00 6.1 7 Oeste 17 Oeste 0 -- -- 73
2019-11-18 19:00:00 7 11 Sudoeste 15 Sudoeste 0 -- -- 70
2019-11-18 18:00:00 8.4 10 Oeste 15 Oeste 0 -- -- 66
2019-11-18 17:00:00 12.2 9 Oeste 18 Oeste 0 -- -- 54
2019-11-18 16:00:00 13.5 6 Oeste 13 Oeste 0 -- -- 49
2019-11-18 15:00:00 13.3 4 Norte 10 Norte 0 -- -- 48
2019-11-18 14:00:00 12.4 5 Noroeste 12 Norte 0 -- -- 51
2019-11-18 13:00:00 11.7 4 Norte 12 Oeste 0 -- -- 53
2019-11-18 12:00:00 10.3 6 Oeste 12 Oeste 0 -- -- 62
2019-11-18 11:00:00 8.8 3 Oeste 7 Oeste 0 -- -- 66
2019-11-18 10:00:00 7.6 2 Noroeste 7 Norte 0 -- -- 71
2019-11-18 09:00:00 3.8 3 Oeste 11 Oeste 0 -- -- 83
2019-11-18 08:00:00 3.2 9 Oeste 13 Oeste 0 -- -- 88
2019-11-18 07:00:00 3.3 5 Noroeste 19 Noroeste 0 -- -- 88
2019-11-18 06:00:00 3.6 12 Noroeste 20 Noroeste 0 -- -- 90
2019-11-18 05:00:00 3.8 9 Oeste 19 Oeste 0 -- -- 93
2019-11-18 04:00:00 3.7 14 Oeste 19 Oeste 0 -- -- 92
2019-11-18 03:00:00 4.1 11 Oeste 21 Oeste 0 -- -- 91
2019-11-18 02:00:00 4.6 13 Oeste 45 Oeste 0 -- -- 88
2019-11-18 01:00:00 5 22 Noroeste 34 Oeste 0 -- -- 88
2019-11-18 00:00:00 5.1 12 Oeste 38 Oeste 0 -- -- 86
2019-11-17 23:00:00 5.3 21 Oeste 34 Noroeste 0 -- -- 85
2019-11-17 22:00:00 5.4 23 Oeste 36 Oeste 0 -- -- 83
2019-11-17 21:00:00 5.6 17 Oeste 40 Oeste 0 -- -- 80
2019-11-17 20:00:00 6.7 25 Oeste 36 Oeste 0 -- -- 76
2019-11-17 19:00:00 6.9 17 Oeste 30 Oeste 0 -- -- 80
2019-11-17 18:00:00 7.4 19 Oeste 31 Noroeste 0 -- -- 83
2019-11-17 17:00:00 8 19 Noroeste 40 Noroeste 0 -- -- 89
2019-11-17 16:00:00 8.5 17 Noroeste 43 Oeste 1.4 -- -- 94
2019-11-17 15:00:00 10.3 24 Oeste 39 Oeste 0 -- -- 88
2019-11-17 14:00:00 10.7 23 Oeste 36 Oeste 0 -- -- 90
2019-11-17 13:00:00 8.7 17 Oeste 33 Oeste 0 -- -- 95
2019-11-17 12:00:00 8.5 21 Sudoeste 36 Sudoeste 0 -- -- 96
2019-11-17 11:00:00 6.9 15 Sudoeste 30 Sudoeste 0 -- -- 97
2019-11-17 10:00:00 5.8 17 Sudoeste 31 Sur 0 -- -- 98
2019-11-17 09:00:00 5.3 17 Sur 32 Sur 0 -- -- 98
2019-11-17 08:00:00 4.6 12 Sur 23 Sur 0 -- -- 98
2019-11-17 07:00:00 4.3 9 Sudoeste 25 Sur 0 -- -- 97
2019-11-17 06:00:00 4.4 10 Sudoeste 20 Sudoeste 0 -- -- 96
2019-11-17 05:00:00 4.5 9 Sudoeste 25 Sur 0 -- -- 95
2019-11-17 04:00:00 4.4 12 Sudoeste 26 Sudoeste 0 -- -- 92
2019-11-17 03:00:00 5 13 Sur 22 Sudoeste 0 -- -- 84
2019-11-17 02:00:00 5 14 Sudoeste 24 Sudoeste 0 -- -- 82
2019-11-17 01:00:00 5.2 13 Sudoeste 27 Oeste 0 -- -- 79
2019-11-17 00:00:00 5.2 9 Sudoeste 24 Sudoeste 0 -- -- 77
2019-11-16 23:00:00 5.2 14 Sudoeste 22 Sudoeste 0 -- -- 76
2019-11-16 22:00:00 5.3 15 Oeste 22 Oeste 0 -- -- 74
2019-11-16 21:00:00 5.3 13 Oeste 23 Oeste 0 -- -- 74
2019-11-16 20:00:00 5.9 13 Oeste 22 Oeste 0 -- -- 71
2019-11-16 19:00:00 5.9 13 Oeste 23 Oeste 0 -- -- 72
2019-11-16 18:00:00 6.1 9 Oeste 27 Oeste 0 -- -- 72
2019-11-16 17:00:00 6.9 20 Oeste 33 Noroeste 0 -- -- 65
2019-11-16 16:00:00 7.6 21 Noroeste 30 Oeste 0 -- -- 60
2019-11-16 15:00:00 7.4 20 Oeste 35 Oeste 0 -- -- 68
2019-11-16 14:00:00 8.8 16 Oeste 32 Oeste 0 -- -- 65
2019-11-16 13:00:00 7 16 Oeste 30 Oeste 0 -- -- 74
2019-11-16 12:00:00 6.2 17 Oeste 26 Oeste 0 -- -- 75
2019-11-16 11:00:00 6.1 12 Oeste 19 Oeste 0 -- -- 77
2019-11-16 10:00:00 4.1 12 Oeste 21 Sudoeste 0 -- -- 81
2019-11-16 09:00:00 1.9 11 Oeste 19 Oeste 0 -- -- 89
2019-11-16 08:00:00 0.8 12 Oeste 17 Oeste 0 -- -- 92
2019-11-16 07:00:00 0.9 10 Oeste 14 Oeste 0 -- -- 91
2019-11-16 06:00:00 1 10 Oeste 15 Oeste 0 -- -- 90
2019-11-16 05:00:00 1.2 10 Oeste 16 Oeste 0 -- -- 90
2019-11-16 04:00:00 1.3 10 Oeste 22 Oeste 0 -- -- 90
2019-11-16 03:00:00 1.5 10 Oeste 17 Oeste 0 -- -- 88
2019-11-16 02:00:00 1.4 12 Oeste 21 Oeste 0 -- -- 88
2019-11-16 01:00:00 1.8 13 Noroeste 20 Oeste 0 -- -- 86
2019-11-16 00:00:00 2.2 14 Oeste 25 Oeste 0 -- -- 85
2019-11-15 23:00:00 2.7 11 Noroeste 19 Oeste 0 -- -- 84
2019-11-15 22:00:00 3.5 11 Oeste 30 Oeste 0 -- -- 81
2019-11-15 21:00:00 4 13 Oeste 28 Oeste 0 -- -- 79
2019-11-15 20:00:00 3.7 14 Oeste 39 Oeste 0 -- -- 79
2019-11-15 19:00:00 4.4 23 Oeste 37 Oeste 0 -- -- 76
2019-11-15 18:00:00 4.9 21 Noroeste 36 Oeste 0 -- -- 74
2019-11-15 17:00:00 6.7 21 Noroeste 39 Noroeste 0 -- -- 64
2019-11-15 16:00:00 7.3 26 Oeste 40 Oeste 0 -- -- 62
2019-11-15 15:00:00 8.2 26 Noroeste 40 Oeste 0 -- -- 58
2019-11-15 14:00:00 6.7 19 Noroeste 40 Oeste 0 -- -- 63
2019-11-15 13:00:00 7.6 26 Oeste 36 Oeste 0 -- -- 62
2019-11-15 12:00:00 6.8 26 Oeste 49 Oeste 0 -- -- 64
2019-11-15 11:00:00 5.5 28 Noroeste 42 Oeste 0 -- -- 68
2019-11-15 10:00:00 4.4 23 Oeste 34 Oeste 0 -- -- 76
2019-11-15 09:00:00 2.4 23 Oeste 41 Oeste 0 -- -- 86
2019-11-15 08:00:00 2.4 19 Oeste 33 Oeste 0 -- -- 85
2019-11-15 07:00:00 2.3 19 Oeste 35 Oeste 0 -- -- 86
2019-11-15 06:00:00 2.4 20 Oeste 38 Oeste 0 -- -- 85
2019-11-15 05:00:00 2.7 20 Oeste 37 Oeste 0 -- -- 82
2019-11-15 04:00:00 2.8 24 Oeste 40 Oeste 0 -- -- 82
2019-11-15 03:00:00 3 26 Oeste 42 Oeste 0 -- -- 80
2019-11-15 02:00:00 3.3 21 Oeste 58 Oeste 0 -- -- 79
2019-11-15 01:00:00 3.6 24 Oeste 48 Oeste 0 -- -- 79
2019-11-15 00:00:00 4.3 29 Oeste 48 Oeste 0 -- -- 77